createdAt,value
2022-11-27T00:01:35.155Z,12.10
2022-11-27T00:04:03.284Z,21.93
2022-11-27T00:06:31.975Z,17.70
2022-11-27T00:09:04.954Z,22.30
2022-11-27T00:11:33.071Z,20.47
2022-11-27T00:14:01.020Z,19.57
2022-11-27T00:16:29.298Z,24.93
2022-11-27T00:18:57.073Z,24.27
2022-11-27T00:21:28.197Z,25.57
2022-11-27T00:23:57.552Z,21.07
2022-11-27T00:26:26.698Z,21.93
2022-11-27T00:28:54.455Z,20.97
2022-11-27T00:31:29.667Z,21.93
2022-11-27T00:33:59.862Z,18.67
2022-11-27T00:36:28.595Z,24.33
2022-11-27T00:38:56.564Z,22.27
2022-11-27T00:41:26.069Z,22.07
2022-11-27T00:43:54.374Z,22.20
2022-11-27T00:46:30.645Z,22.10
2022-11-27T00:48:59.704Z,20.57
2022-11-27T00:51:28.601Z,20.47
2022-11-27T00:53:56.514Z,24.90
2022-11-27T00:56:26.468Z,23.43
2022-11-27T00:58:55.137Z,22.87
2022-11-27T01:01:28.342Z,22.33
2022-11-27T01:04:01.055Z,19.53
2022-11-27T01:06:30.269Z,22.97
2022-11-27T01:08:58.457Z,21.53
2022-11-27T01:11:28.695Z,23.53
2022-11-27T01:13:58.432Z,20.57
2022-11-27T01:16:28.259Z,22.83
2022-11-27T01:19:00.349Z,26.33
2022-11-27T01:21:31.364Z,18.87
2022-11-27T01:23:59.862Z,27.17
2022-11-27T01:26:27.617Z,22.53
2022-11-27T01:28:56.462Z,21.53
2022-11-27T01:31:27.008Z,20.47
2022-11-27T01:33:57.628Z,18.23
2022-11-27T01:36:25.619Z,22.80
2022-11-27T01:38:53.173Z,21.20
2022-11-27T01:41:26.100Z,22.00
2022-11-27T01:43:59.853Z,19.70
2022-11-27T01:46:39.439Z,18.50
2022-11-27T01:49:09.886Z,20.20
2022-11-27T01:51:40.863Z,23.57
2022-11-27T01:54:10.619Z,19.23
2022-11-27T01:56:40.446Z,23.83
2022-11-27T01:59:08.208Z,18.80
2022-11-27T02:01:35.768Z,19.70
2022-11-27T02:04:04.175Z,22.27
2022-11-27T02:06:31.710Z,24.87
2022-11-27T02:08:59.442Z,20.37
2022-11-27T02:11:33.888Z,21.67
2022-11-27T02:14:24.359Z,20.20
2022-11-27T02:17:17.791Z,18.40
2022-11-27T02:20:26.253Z,16.27
2022-11-27T02:23:12.231Z,16.33
2022-11-27T02:25:54.643Z,18.23
2022-11-27T02:28:32.974Z,24.57
2022-11-27T02:31:12.493Z,21.50
2022-11-27T02:33:45.437Z,19.23
2022-11-27T02:36:19.193Z,17.53
2022-11-27T02:38:59.808Z,16.73
2022-11-27T02:41:33.421Z,18.53
2022-11-27T02:44:02.017Z,15.07
2022-11-27T02:46:30.140Z,19.80
2022-11-27T02:49:01.682Z,17.27
2022-11-27T02:51:37.535Z,18.43
2022-11-27T02:54:09.742Z,16.50
2022-11-27T02:56:38.877Z,20.27
2022-11-27T02:59:10.815Z,17.17
2022-11-27T03:01:45.431Z,20.67
2022-11-27T03:04:18.791Z,16.27
2022-11-27T03:06:59.733Z,15.67
2022-11-27T03:09:36.449Z,16.93
2022-11-27T03:12:06.709Z,16.27
2022-11-27T03:14:35.554Z,18.53
2022-11-27T03:17:06.541Z,17.00
2022-11-27T03:19:33.821Z,19.80
2022-11-27T03:22:02.822Z,17.53
2022-11-27T03:24:33.161Z,17.17
2022-11-27T03:27:01.232Z,18.57
2022-11-27T03:29:41.384Z,16.97
2022-11-27T03:32:09.729Z,18.47
2022-11-27T03:34:37.573Z,18.77
2022-11-27T03:37:05.153Z,15.70
2022-11-27T03:39:33.567Z,15.43
2022-11-27T03:42:24.264Z,16.43
2022-11-27T03:45:46.913Z,16.93
2022-11-27T03:48:46.386Z,16.93
2022-11-27T03:51:39.407Z,15.83
2022-11-27T03:54:31.389Z,15.03
2022-11-27T03:57:07.556Z,17.00
2022-11-27T03:59:40.399Z,18.13
2022-11-27T04:02:13.894Z,17.13
2022-11-27T04:04:41.575Z,11.33
2022-11-27T04:07:16.126Z,14.67
2022-11-27T04:09:43.847Z,14.43
2022-11-27T04:12:11.291Z,16.90
2022-11-27T04:14:39.274Z,19.27
2022-11-27T04:17:07.198Z,19.23
2022-11-27T04:19:34.589Z,16.60
2022-11-27T04:22:02.046Z,12.73
2022-11-27T04:24:29.502Z,15.13
2022-11-27T04:26:56.899Z,14.27
2022-11-27T04:29:24.276Z,15.03
2022-11-27T04:31:51.800Z,18.80
2022-11-27T04:34:19.409Z,24.50
2022-11-27T04:36:46.995Z,11.87
2022-11-27T04:39:14.504Z,16.33
2022-11-27T04:41:41.952Z,17.33
2022-11-27T04:44:09.610Z,17.17
2022-11-27T04:46:37.074Z,14.87
2022-11-27T04:49:04.905Z,18.73
2022-11-27T04:51:32.260Z,18.27
2022-11-27T04:53:59.564Z,18.57
2022-11-27T04:56:26.934Z,11.67
2022-11-27T04:58:54.287Z,16.43
2022-11-27T05:01:21.828Z,18.17
2022-11-27T05:03:49.540Z,15.87
2022-11-27T05:06:17.135Z,17.70
2022-11-27T05:08:44.575Z,19.03
2022-11-27T05:11:14.894Z,17.57
2022-11-27T05:13:43.046Z,18.00
2022-11-27T05:16:11.204Z,16.17
2022-11-27T05:18:38.673Z,15.20
2022-11-27T05:21:08.089Z,18.13
2022-11-27T05:23:35.725Z,17.60
2022-11-27T05:26:03.674Z,17.50
2022-11-27T05:28:31.063Z,16.13
2022-11-27T05:30:58.584Z,14.20
2022-11-27T05:33:25.986Z,16.23
2022-11-27T05:35:53.478Z,16.37
2022-11-27T05:38:21.230Z,13.70
2022-11-27T05:40:49.165Z,13.63
2022-11-27T05:43:16.490Z,15.90
2022-11-27T05:45:43.925Z,14.17
2022-11-27T05:48:11.347Z,19.93
2022-11-27T05:50:39.016Z,16.10
2022-11-27T05:53:06.333Z,17.00
2022-11-27T05:55:33.797Z,16.83
2022-11-27T05:58:01.300Z,16.80
2022-11-27T06:00:29.894Z,15.13
2022-11-27T06:02:57.279Z,20.07
2022-11-27T06:05:24.604Z,16.37
2022-11-27T06:07:52.017Z,14.40
2022-11-27T06:10:19.441Z,15.70
2022-11-27T06:12:46.845Z,13.50
2022-11-27T06:15:14.129Z,13.93
2022-11-27T06:17:41.592Z,16.50
2022-11-27T06:20:09.280Z,14.27
2022-11-27T06:22:36.736Z,14.47
2022-11-27T06:25:04.441Z,16.27
2022-11-27T06:27:35.566Z,16.20
2022-11-27T06:30:04.089Z,14.40
2022-11-27T06:32:31.630Z,16.40
2022-11-27T06:34:59.140Z,15.80
2022-11-27T06:37:27.477Z,10.57
2022-11-27T06:39:54.903Z,9.67
2022-11-27T06:42:22.416Z,14.17
2022-11-27T06:44:50.057Z,13.27
2022-11-27T06:47:17.727Z,13.97
2022-11-27T06:49:45.186Z,11.97
2022-11-27T06:52:12.724Z,9.43
2022-11-27T06:54:40.218Z,13.90
2022-11-27T06:57:08.236Z,13.47
2022-11-27T06:59:35.718Z,12.27
2022-11-27T07:02:03.295Z,13.33
2022-11-27T07:04:30.723Z,11.83
2022-11-27T07:06:59.045Z,12.13
2022-11-27T07:09:26.723Z,9.17
2022-11-27T07:11:54.222Z,11.07
2022-11-27T07:14:21.664Z,12.93
2022-11-27T07:16:49.174Z,15.13
2022-11-27T07:19:17.013Z,14.17
2022-11-27T07:21:44.366Z,9.83
2022-11-27T07:24:11.818Z,10.00
2022-11-27T07:26:39.477Z,13.00
2022-11-27T07:29:07.223Z,14.43
2022-11-27T07:31:35.065Z,14.10
2022-11-27T07:34:03.477Z,10.43
2022-11-27T07:36:32.408Z,8.70
2022-11-27T07:38:59.793Z,11.13
2022-11-27T07:41:33.549Z,8.33
2022-11-27T07:44:01.407Z,13.63
2022-11-27T07:46:30.235Z,12.13
2022-11-27T07:48:58.343Z,13.57
2022-11-27T07:51:25.861Z,11.93
2022-11-27T07:53:53.348Z,9.07
2022-11-27T07:56:21.459Z,12.20
2022-11-27T07:58:49.173Z,13.50
2022-11-27T08:01:18.950Z,11.57
2022-11-27T08:03:46.741Z,11.67
2022-11-27T08:06:24.129Z,13.87
2022-11-27T08:08:52.776Z,11.70
2022-11-27T08:11:23.733Z,10.33
2022-11-27T08:13:55.467Z,11.03
2022-11-27T08:16:22.893Z,11.97
2022-11-27T08:18:50.505Z,10.77
2022-11-27T08:21:17.838Z,11.23
2022-11-27T08:23:45.425Z,7.77
2022-11-27T08:26:14.204Z,11.80
2022-11-27T08:28:42.146Z,12.27
2022-11-27T08:31:11.874Z,9.93
2022-11-27T08:33:39.580Z,8.27
2022-11-27T08:36:17.913Z,9.50
2022-11-27T08:38:47.005Z,11.77
2022-11-27T08:41:14.800Z,10.37
2022-11-27T08:43:42.269Z,13.00
2022-11-27T08:46:10.261Z,10.00
2022-11-27T08:48:40.383Z,11.33
2022-11-27T08:51:10.343Z,9.73
2022-11-27T08:53:38.553Z,8.80
2022-11-27T08:56:11.700Z,9.37
2022-11-27T08:58:41.406Z,9.60
2022-11-27T09:01:16.291Z,12.67
2022-11-27T09:03:43.977Z,9.37
2022-11-27T09:06:14.008Z,9.90
2022-11-27T09:08:42.420Z,7.60
2022-11-27T09:11:11.394Z,8.30
2022-11-27T09:13:40.446Z,11.40
2022-11-27T09:16:19.822Z,10.53
2022-11-27T09:18:49.391Z,11.43
2022-11-27T09:21:19.275Z,12.37
2022-11-27T09:23:46.739Z,9.17
2022-11-27T09:26:16.746Z,9.23
2022-11-27T09:28:44.936Z,11.80
2022-11-27T09:31:14.872Z,6.87
2022-11-27T09:33:43.205Z,10.17
2022-11-27T09:36:16.262Z,11.57
2022-11-27T09:38:44.362Z,10.47
2022-11-27T09:41:14.328Z,15.27
2022-11-27T09:43:49.275Z,9.30
2022-11-27T09:46:26.562Z,9.63
2022-11-27T09:48:54.936Z,13.17
2022-11-27T09:51:39.496Z,12.37
2022-11-27T09:54:23.781Z,13.87
2022-11-27T09:56:53.535Z,12.30
2022-11-27T09:59:25.359Z,12.37
2022-11-27T10:01:52.953Z,11.23
2022-11-27T10:04:21.781Z,13.23
2022-11-27T10:07:41.862Z,5.80
2022-11-27T10:10:37.640Z,8.77
2022-11-27T10:13:21.291Z,11.47
2022-11-27T10:16:03.961Z,17.33
2022-11-27T10:18:46.838Z,10.50
2022-11-27T10:21:45.900Z,19.27
2022-11-27T10:24:20.527Z,11.93
2022-11-27T10:26:50.258Z,13.83
2022-11-27T10:29:36.376Z,10.83
2022-11-27T10:32:53.019Z,6.60
2022-11-27T10:35:16.624Z,7.70
2022-11-27T10:37:52.802Z,14.33
2022-11-27T10:40:29.399Z,10.17
2022-11-27T10:43:05.210Z,14.00
2022-11-27T10:45:52.318Z,12.27
2022-11-27T10:48:19.845Z,17.70
2022-11-27T10:50:47.437Z,10.80
2022-11-27T10:53:33.578Z,13.63
2022-11-27T10:56:17.270Z,13.00
2022-11-27T10:58:59.726Z,15.77
2022-11-27T11:01:40.608Z,11.37
2022-11-27T11:04:35.873Z,9.40
2022-11-27T11:06:58.030Z,12.33
2022-11-27T11:09:29.435Z,11.53
2022-11-27T11:12:17.066Z,12.20
2022-11-27T11:14:57.696Z,14.13
2022-11-27T11:17:27.940Z,16.73
2022-11-27T11:19:55.560Z,12.57
2022-11-27T11:22:24.146Z,14.77
2022-11-27T11:24:54.763Z,17.13
2022-11-27T11:27:32.506Z,15.63
2022-11-27T11:30:04.005Z,8.70
2022-11-27T11:32:40.511Z,15.17
2022-11-27T11:35:32.490Z,12.73
2022-11-27T11:38:01.703Z,12.77
2022-11-27T11:40:35.475Z,16.50
2022-11-27T11:43:06.812Z,16.20
2022-11-27T11:45:35.304Z,15.77
2022-11-27T11:48:27.049Z,14.83
2022-11-27T11:50:56.024Z,12.20
2022-11-27T11:53:59.198Z,17.87
2022-11-27T11:56:29.441Z,17.37
2022-11-27T11:59:11.121Z,13.73
2022-11-27T12:02:17.528Z,13.07
2022-11-27T12:04:48.639Z,15.10
2022-11-27T12:07:37.270Z,13.17
2022-11-27T12:10:13.545Z,14.93
2022-11-27T12:13:05.986Z,15.67
2022-11-27T12:15:52.966Z,19.07
2022-11-27T12:18:25.839Z,13.80
2022-11-27T12:21:17.964Z,15.90
2022-11-27T12:23:51.611Z,17.37
2022-11-27T12:26:37.127Z,17.97
2022-11-27T12:29:26.792Z,16.23
2022-11-27T12:32:14.706Z,17.27
2022-11-27T12:34:55.738Z,19.10
2022-11-27T12:37:46.471Z,17.97
2022-11-27T12:40:19.536Z,15.53
2022-11-27T12:43:08.770Z,5.07
2022-11-27T12:46:02.681Z,18.93
2022-11-27T12:48:48.054Z,22.50
2022-11-27T12:51:27.988Z,20.17
2022-11-27T12:54:18.674Z,18.53
2022-11-27T12:56:51.635Z,17.53
2022-11-27T12:59:35.365Z,16.57
2022-11-27T13:02:17.940Z,17.00
2022-11-27T13:04:52.298Z,15.80
2022-11-27T13:07:26.699Z,20.80
2022-11-27T13:09:59.974Z,18.47
2022-11-27T13:12:34.858Z,28.57
2022-11-27T13:15:32.486Z,21.50
2022-11-27T13:18:22.116Z,23.47
2022-11-27T13:20:52.762Z,20.17
2022-11-27T13:23:21.527Z,20.30
2022-11-27T13:25:54.649Z,20.07
2022-11-27T13:28:52.895Z,21.73
2022-11-27T13:31:25.248Z,20.43
2022-11-27T13:33:59.925Z,19.60
2022-11-27T13:36:55.158Z,19.30
2022-11-27T13:39:34.283Z,25.10
2022-11-27T13:42:18.263Z,21.13
2022-11-27T13:44:55.278Z,18.10
2022-11-27T13:47:25.841Z,19.43
2022-11-27T13:50:07.787Z,19.03
2022-11-27T13:52:38.543Z,22.20
2022-11-27T13:55:10.270Z,19.50
2022-11-27T13:57:40.032Z,22.93
2022-11-27T14:00:13.690Z,16.50
2022-11-27T14:02:48.379Z,24.73
2022-11-27T14:05:21.048Z,21.87
2022-11-27T14:07:52.284Z,15.53
2022-11-27T14:10:26.723Z,25.20
2022-11-27T14:12:56.334Z,23.57
2022-11-27T14:15:28.791Z,19.70
2022-11-27T14:18:09.663Z,25.40
2022-11-27T14:20:47.407Z,24.23
2022-11-27T14:23:26.303Z,28.07
2022-11-27T14:26:09.521Z,21.47
2022-11-27T14:28:43.059Z,21.00
2022-11-27T14:31:39.973Z,18.97
2022-11-27T14:34:28.605Z,26.57
2022-11-27T14:36:56.533Z,23.63
2022-11-27T14:39:35.428Z,24.73
2022-11-27T14:42:06.522Z,25.33
2022-11-27T14:44:34.843Z,24.90
2022-11-27T14:47:05.708Z,24.30
2022-11-27T14:49:34.046Z,25.57
2022-11-27T14:52:07.774Z,25.67
2022-11-27T14:54:38.619Z,28.77
2022-11-27T14:57:08.450Z,28.30
2022-11-27T14:59:36.118Z,28.57
2022-11-27T15:02:04.675Z,26.13
2022-11-27T15:04:35.939Z,22.67
2022-11-27T15:07:22.909Z,24.70
2022-11-27T15:09:52.530Z,26.83
2022-11-27T15:12:33.438Z,27.00
2022-11-27T15:15:05.803Z,22.20
2022-11-27T15:17:36.515Z,16.70
2022-11-27T15:20:13.444Z,28.27
2022-11-27T15:22:52.012Z,20.60
2022-11-27T15:25:41.863Z,28.90
2022-11-27T15:28:35.778Z,27.37
2022-11-27T15:31:24.975Z,26.63
2022-11-27T15:34:15.732Z,27.30
2022-11-27T15:36:49.057Z,22.47
2022-11-27T15:39:35.631Z,24.37
2022-11-27T15:42:08.641Z,27.23
2022-11-27T15:44:36.163Z,24.17
2022-11-27T15:47:05.561Z,21.07
2022-11-27T15:49:32.984Z,28.83
2022-11-27T15:52:00.492Z,25.20
2022-11-27T15:54:27.949Z,26.00
2022-11-27T15:56:55.327Z,23.60
2022-11-27T15:59:23.095Z,26.00
2022-11-27T16:01:50.653Z,37.23
2022-11-27T16:04:18.278Z,27.07
2022-11-27T16:06:45.764Z,24.57
2022-11-27T16:09:14.230Z,27.60
2022-11-27T16:11:41.755Z,29.20
2022-11-27T16:14:09.282Z,24.37
2022-11-27T16:16:38.139Z,31.30
2022-11-27T16:19:06.691Z,18.67
2022-11-27T16:21:36.862Z,33.63
2022-11-27T16:24:06.860Z,27.17
2022-11-27T16:26:34.859Z,23.93
2022-11-27T16:29:02.307Z,28.43
2022-11-27T16:31:29.927Z,28.30
2022-11-27T16:33:57.543Z,29.27
2022-11-27T16:36:24.974Z,25.53
2022-11-27T16:38:54.626Z,29.37
2022-11-27T16:41:23.119Z,29.37
2022-11-27T16:43:53.071Z,29.07
2022-11-27T16:46:31.337Z,32.03
2022-11-27T16:48:59.509Z,24.10
2022-11-27T16:51:29.604Z,32.43
2022-11-27T16:53:58.645Z,24.33
2022-11-27T16:56:28.095Z,27.47
2022-11-27T16:59:02.412Z,30.43
2022-11-27T17:01:34.673Z,34.40
2022-11-27T17:04:09.291Z,33.23
2022-11-27T17:06:38.378Z,24.20
2022-11-27T17:09:07.881Z,29.33
2022-11-27T17:11:36.819Z,24.00
2022-11-27T17:14:07.908Z,27.27
2022-11-27T17:16:36.576Z,25.07
2022-11-27T17:19:04.341Z,26.83
2022-11-27T17:21:34.549Z,24.37
2022-11-27T17:24:10.112Z,29.03
2022-11-27T17:26:43.243Z,25.23
2022-11-27T17:29:17.453Z,28.00
2022-11-27T17:31:45.004Z,25.63
2022-11-27T17:34:14.871Z,25.33
2022-11-27T17:36:44.780Z,29.83
2022-11-27T17:39:14.031Z,25.60
2022-11-27T17:41:42.288Z,25.70
2022-11-27T17:44:09.678Z,28.20
2022-11-27T17:46:38.193Z,30.03
2022-11-27T17:49:07.625Z,25.20
2022-11-27T17:51:36.331Z,29.00
2022-11-27T17:54:05.597Z,25.03
2022-11-27T17:56:33.934Z,21.87
2022-11-27T17:59:01.729Z,27.37
2022-11-27T18:01:29.776Z,31.53
2022-11-27T18:04:00.609Z,30.30
2022-11-27T18:06:28.202Z,30.20
2022-11-27T18:08:58.341Z,27.53
2022-11-27T18:11:28.051Z,32.70
2022-11-27T18:13:55.532Z,25.90
2022-11-27T18:16:29.138Z,28.50
2022-11-27T18:18:58.193Z,22.07
2022-11-27T18:21:28.915Z,31.70
2022-11-27T18:29:31.527Z,29.77
2022-11-27T18:31:59.008Z,30.83
2022-11-27T18:34:26.508Z,28.30
2022-11-27T18:36:57.405Z,26.77
2022-11-27T18:39:24.946Z,31.60
2022-11-27T18:41:53.048Z,26.40
2022-11-27T18:44:20.570Z,27.37
2022-11-27T18:46:47.905Z,26.00
2022-11-27T18:49:15.600Z,24.97
2022-11-27T18:51:43.000Z,28.43
2022-11-27T18:54:10.701Z,28.00
2022-11-27T18:56:38.424Z,27.20
2022-11-27T18:59:07.140Z,26.33
2022-11-27T19:01:41.399Z,24.33
2022-11-27T19:04:13.085Z,28.03
2022-11-27T19:06:42.383Z,27.67
2022-11-27T19:09:11.684Z,24.33
2022-11-27T19:11:39.873Z,25.30
2022-11-27T19:14:08.089Z,26.33
2022-11-27T19:16:45.587Z,24.97
2022-11-27T19:22:07.258Z,23.60
2022-11-27T19:24:34.727Z,26.67
2022-11-27T19:27:02.247Z,22.67
2022-11-27T19:29:29.692Z,28.00
2022-11-27T19:31:59.139Z,21.03
2022-11-27T19:34:26.576Z,30.37
2022-11-27T19:36:54.084Z,25.40
2022-11-27T19:39:21.530Z,21.93
2022-11-27T19:41:49.054Z,24.27
2022-11-27T19:44:17.701Z,18.03
2022-11-27T19:46:46.616Z,27.00
2022-11-27T19:49:17.847Z,21.77
2022-11-27T19:51:45.779Z,17.33
2022-11-27T19:54:14.229Z,25.23
2022-11-27T19:56:42.742Z,29.83
2022-11-27T19:59:11.667Z,24.47
2022-11-27T20:01:40.622Z,13.50
2022-11-27T20:04:13.323Z,23.70
2022-11-27T20:06:41.391Z,21.60
2022-11-27T20:09:09.198Z,26.57
2022-11-27T20:11:37.279Z,27.60
2022-11-27T20:14:06.077Z,25.23
2022-11-27T20:16:36.100Z,23.03
2022-11-27T20:19:05.704Z,29.80
2022-11-27T20:21:33.678Z,29.47
2022-11-27T20:24:02.031Z,25.80
2022-11-27T20:26:30.775Z,22.63
2022-11-27T20:29:01.236Z,24.07
2022-11-27T20:31:34.077Z,26.57
2022-11-27T20:34:04.117Z,18.93
2022-11-27T20:36:33.798Z,25.20
2022-11-27T20:39:01.893Z,23.97
2022-11-27T20:41:29.767Z,26.00
2022-11-27T20:44:01.125Z,23.77
2022-11-27T20:46:29.079Z,22.70
2022-11-27T20:48:57.509Z,26.73
2022-11-27T20:51:28.806Z,27.60
2022-11-27T20:53:58.419Z,26.00
2022-11-27T20:56:26.237Z,23.93
2022-11-27T20:58:53.926Z,17.07
2022-11-27T21:01:30.317Z,14.17
2022-11-27T21:04:00.570Z,17.70
2022-11-27T21:06:30.142Z,20.43
2022-11-27T21:09:03.729Z,24.17
2022-11-27T21:11:32.979Z,21.87
2022-11-27T21:14:06.802Z,23.20
2022-11-27T21:16:36.918Z,23.47
2022-11-27T21:19:07.220Z,23.93
2022-11-27T21:21:35.007Z,26.60
2022-11-27T21:24:02.460Z,19.60
2022-11-27T21:26:30.103Z,25.50
2022-11-27T21:28:57.456Z,21.73
2022-11-27T21:31:29.483Z,23.40
2022-11-27T21:34:01.748Z,32.43
2022-11-27T21:36:33.135Z,26.67
2022-11-27T21:39:01.903Z,25.27
2022-11-27T21:41:31.720Z,20.10
2022-11-27T21:44:01.180Z,25.90
2022-11-27T21:46:29.977Z,27.33
2022-11-27T21:49:00.422Z,30.47
2022-11-27T21:51:29.472Z,30.50
2022-11-27T21:53:58.183Z,26.80
2022-11-27T21:56:27.648Z,28.77
2022-11-27T21:58:55.222Z,27.70
2022-11-27T22:01:24.907Z,25.60
2022-11-27T22:03:57.697Z,28.17
2022-11-27T22:06:29.117Z,25.60
2022-11-27T22:08:58.395Z,28.13
2022-11-27T22:11:27.963Z,28.13
2022-11-27T22:14:00.274Z,20.10
2022-11-27T22:16:33.934Z,28.13
2022-11-27T22:19:02.361Z,32.23
2022-11-27T22:21:31.195Z,29.67
2022-11-27T22:24:01.333Z,27.50
2022-11-27T22:26:29.537Z,27.83
2022-11-27T22:28:58.140Z,26.53
2022-11-27T22:31:30.015Z,26.23
2022-11-27T22:33:57.754Z,30.53
2022-11-27T22:36:31.356Z,30.37
2022-11-27T22:39:04.403Z,28.53
2022-11-27T22:41:36.304Z,31.20
2022-11-27T22:44:08.724Z,30.50
2022-11-27T22:46:37.286Z,29.43
2022-11-27T22:49:06.586Z,25.77
2022-11-27T22:51:35.943Z,32.00
2022-11-27T22:54:05.267Z,28.70
2022-11-27T22:56:36.709Z,30.70
2022-11-27T22:59:31.104Z,28.20
2022-11-27T23:01:54.453Z,26.77
2022-11-27T23:04:21.927Z,32.90
2022-11-27T23:06:49.649Z,26.90
2022-11-27T23:09:19.055Z,25.57
2022-11-27T23:11:46.919Z,26.53
2022-11-27T23:14:14.406Z,26.10
2022-11-27T23:16:43.130Z,19.50
2022-11-27T23:19:11.672Z,30.13
2022-11-27T23:21:39.567Z,28.20
2022-11-27T23:24:10.210Z,27.93
2022-11-27T23:26:37.692Z,22.07
2022-11-27T23:29:05.424Z,26.10
2022-11-27T23:31:35.980Z,26.80
2022-11-27T23:34:07.723Z,27.30
2022-11-27T23:36:35.670Z,28.27
2022-11-27T23:39:05.435Z,19.60
2022-11-27T23:41:32.802Z,31.43
2022-11-27T23:44:01.628Z,28.50
2022-11-27T23:46:30.612Z,29.87
2022-11-27T23:48:59.863Z,27.10
2022-11-27T23:51:30.468Z,26.43
2022-11-27T23:53:58.334Z,24.77
2022-11-27T23:56:31.205Z,25.10
2022-11-27T23:58:59.545Z,25.23
